Time;durP1;ratioP1;P1;durP2;ratioP2;P2;SDS_P1;SDS_P2;PMS_P1;PMS_P2;Temp;Humidity;BMP_temperature;BMP_pressure;BME280_temperature;BME280_humidity;BME280_pressure;Samples;Min_cycle;Max_cycle;Signal;HPM_P1;HPM_P2
2024/01/07 00:00:16;;;;;;;18.97;14.13;;;;;;;;;;5031347;28;20418;-72
2024/01/07 00:02:42;;;;;;;19.07;15.07;;;;;;;;;;5030988;28;20822;-72
2024/01/07 00:05:08;;;;;;;21.87;13.87;;;;;;;;;;5031319;28;20440;-72
2024/01/07 00:07:34;;;;;;;25.00;15.53;;;;;;;;;;5029880;28;20421;-72
2024/01/07 00:10:00;;;;;;;35.67;19.20;;;;;;;;;;5031245;28;20413;-72
2024/01/07 00:12:26;;;;;;;24.90;17.30;;;;;;;;;;5030895;28;20421;-72
2024/01/07 00:14:52;;;;;;;25.93;17.33;;;;;;;;;;5029770;28;20425;-72
2024/01/07 00:17:18;;;;;;;22.97;15.03;;;;;;;;;;5030878;28;20936;-72
2024/01/07 00:19:44;;;;;;;25.80;17.37;;;;;;;;;;5031082;28;20769;-72
2024/01/07 00:22:10;;;;;;;22.60;16.87;;;;;;;;;;5030970;28;20465;-72
2024/01/07 00:24:36;;;;;;;25.40;16.63;;;;;;;;;;5031064;28;20418;-72
2024/01/07 00:27:02;;;;;;;24.80;17.00;;;;;;;;;;5031053;28;20490;-72
2024/01/07 00:29:28;;;;;;;21.63;15.03;;;;;;;;;;5030982;28;20414;-72
2024/01/07 00:31:54;;;;;;;24.53;16.90;;;;;;;;;;5029471;28;20850;-72
2024/01/07 00:34:20;;;;;;;22.77;15.70;;;;;;;;;;5034342;28;20409;-72
2024/01/07 00:36:46;;;;;;;29.80;18.53;;;;;;;;;;5035103;28;20433;-72
2024/01/07 00:39:12;;;;;;;28.83;18.60;;;;;;;;;;5034979;28;20489;-72
2024/01/07 00:41:37;;;;;;;25.10;16.53;;;;;;;;;;5034657;28;21309;-72
2024/01/07 00:44:03;;;;;;;27.67;19.60;;;;;;;;;;5033500;28;20509;-72
2024/01/07 00:46:29;;;;;;;27.20;18.63;;;;;;;;;;5033234;28;20440;-72
2024/01/07 00:48:55;;;;;;;30.73;17.17;;;;;;;;;;5033514;28;20418;-72
2024/01/07 00:51:21;;;;;;;29.77;17.50;;;;;;;;;;5034564;28;20443;-72
2024/01/07 00:53:47;;;;;;;28.33;17.37;;;;;;;;;;5035036;28;20754;-72
2024/01/07 00:56:13;;;;;;;23.67;16.57;;;;;;;;;;5034925;28;20510;-72
2024/01/07 00:58:39;;;;;;;29.93;19.83;;;;;;;;;;5034643;28;20809;-72
2024/01/07 01:01:06;;;;;;;22.93;15.33;;;;;;;;;;5033002;28;20487;-73
2024/01/07 01:03:32;;;;;;;31.80;17.90;;;;;;;;;;5033231;28;20834;-72
2024/01/07 01:05:59;;;;;;;25.97;19.07;;;;;;;;;;5034756;28;20487;-72
2024/01/07 01:08:25;;;;;;;26.10;16.30;;;;;;;;;;5033040;28;20414;-72
2024/01/07 01:10:51;;;;;;;29.53;17.80;;;;;;;;;;5034387;28;20747;-72
2024/01/07 01:13:17;;;;;;;29.83;18.50;;;;;;;;;;5034447;28;20413;-72
2024/01/07 01:15:43;;;;;;;24.47;16.13;;;;;;;;;;5056045;23;20550;-70
2024/01/07 01:18:08;;;;;;;25.07;18.00;;;;;;;;;;5036342;28;20402;-71
2024/01/07 01:20:34;;;;;;;27.20;17.13;;;;;;;;;;5035657;28;20960;-71
2024/01/07 01:23:04;;;;;;;26.40;17.00;;;;;;;;;;5035578;28;20487;-69
2024/01/07 01:25:30;;;;;;;30.80;17.63;;;;;;;;;;5034346;28;20826;-70
2024/01/07 01:27:56;;;;;;;25.93;18.47;;;;;;;;;;5035304;28;20418;-70
2024/01/07 01:30:22;;;;;;;25.77;19.47;;;;;;;;;;5035525;28;20410;-70
2024/01/07 01:32:48;;;;;;;29.03;18.43;;;;;;;;;;5034106;28;20418;-70
2024/01/07 01:35:14;;;;;;;32.60;18.90;;;;;;;;;;5034637;28;20489;-69
2024/01/07 01:37:40;;;;;;;32.63;19.47;;;;;;;;;;5036177;28;20425;-69
2024/01/07 01:40:07;;;;;;;24.43;17.20;;;;;;;;;;5036212;28;20807;-69
2024/01/07 01:42:33;;;;;;;26.93;17.90;;;;;;;;;;5035771;28;20841;-70
2024/01/07 01:45:01;;;;;;;28.63;17.20;;;;;;;;;;5033020;28;20832;-69
2024/01/07 01:47:27;;;;;;;25.73;15.97;;;;;;;;;;5034811;28;20403;-71
2024/01/07 01:49:54;;;;;;;28.30;17.90;;;;;;;;;;5034755;28;20406;-69
2024/01/07 01:52:20;;;;;;;28.67;18.60;;;;;;;;;;5033125;28;20430;-70
2024/01/07 01:54:46;;;;;;;26.50;16.13;;;;;;;;;;5034752;28;20424;-68
2024/01/07 01:57:17;;;;;;;25.80;17.50;;;;;;;;;;5033343;28;21015;-69
2024/01/07 01:59:43;;;;;;;29.13;18.07;;;;;;;;;;5034713;28;20410;-69
2024/01/07 02:02:09;;;;;;;35.03;21.13;;;;;;;;;;5034130;28;20461;-69
2024/01/07 02:04:35;;;;;;;29.20;19.63;;;;;;;;;;5033006;28;20450;-70
2024/01/07 02:07:02;;;;;;;27.73;18.57;;;;;;;;;;5034615;28;20468;-71
2024/01/07 02:09:28;;;;;;;30.63;20.60;;;;;;;;;;5034055;28;20429;-71
2024/01/07 02:12:04;;;;;;;33.17;17.53;;;;;;;;;;5034768;28;20809;-70
2024/01/07 02:14:30;;;;;;;26.83;19.40;;;;;;;;;;5034460;28;20413;-70
2024/01/07 02:16:56;;;;;;;30.40;19.87;;;;;;;;;;5032852;28;20829;-69
2024/01/07 02:19:22;;;;;;;26.33;17.20;;;;;;;;;;5034743;28;20900;-70
2024/01/07 02:21:50;;;;;;;28.07;17.13;;;;;;;;;;5033306;28;20457;-70
2024/01/07 02:24:16;;;;;;;31.03;17.63;;;;;;;;;;5034990;28;20418;-71
2024/01/07 02:26:42;;;;;;;28.63;18.57;;;;;;;;;;5033309;28;20980;-70
2024/01/07 02:29:08;;;;;;;23.07;16.77;;;;;;;;;;5034826;28;20413;-71
2024/01/07 02:31:34;;;;;;;28.17;18.23;;;;;;;;;;5034086;28;20421;-71
2024/01/07 02:34:03;;;;;;;28.20;17.87;;;;;;;;;;5032943;28;20428;-70
2024/01/07 02:36:32;;;;;;;28.33;17.77;;;;;;;;;;5034048;28;20434;-71
2024/01/07 02:38:58;;;;;;;30.10;17.13;;;;;;;;;;5033996;28;20414;-70
2024/01/07 02:41:26;;;;;;;33.43;18.97;;;;;;;;;;5033605;28;20461;-70
2024/01/07 02:43:52;;;;;;;28.60;19.10;;;;;;;;;;5032426;28;20426;-71
2024/01/07 02:46:18;;;;;;;26.00;16.00;;;;;;;;;;5033531;28;20441;-71
2024/01/07 02:48:44;;;;;;;30.37;18.50;;;;;;;;;;5033544;28;20932;-69
2024/01/07 02:51:10;;;;;;;25.40;17.20;;;;;;;;;;5033855;28;20410;-70
2024/01/07 02:53:36;;;;;;;31.20;19.27;;;;;;;;;;5034670;28;20418;-69
2024/01/07 02:56:02;;;;;;;26.77;16.67;;;;;;;;;;5034586;28;20437;-71
2024/01/07 02:58:28;;;;;;;29.90;17.50;;;;;;;;;;5035102;28;20421;-69
2024/01/07 03:00:54;;;;;;;31.60;19.70;;;;;;;;;;5034854;28;20459;-67
2024/01/07 03:03:20;;;;;;;22.93;14.90;;;;;;;;;;5034845;28;20481;-68
2024/01/07 03:05:46;;;;;;;31.07;19.07;;;;;;;;;;5035163;28;20859;-69
2024/01/07 03:08:12;;;;;;;29.43;16.50;;;;;;;;;;5033587;28;20416;-68
2024/01/07 03:10:38;;;;;;;24.20;16.70;;;;;;;;;;5034947;28;20437;-70
2024/01/07 03:13:05;;;;;;;23.23;15.30;;;;;;;;;;5034731;28;20445;-69
2024/01/07 03:15:31;;;;;;;29.87;19.10;;;;;;;;;;5034929;28;20458;-70
2024/01/07 03:17:58;;;;;;;25.13;16.40;;;;;;;;;;5034724;28;20848;-69
2024/01/07 03:20:24;;;;;;;26.83;16.10;;;;;;;;;;5035885;28;20417;-69
2024/01/07 03:22:50;;;;;;;25.97;16.93;;;;;;;;;;5034752;28;20465;-69
2024/01/07 03:25:16;;;;;;;27.20;17.50;;;;;;;;;;5035581;28;20436;-69
2024/01/07 03:27:42;;;;;;;21.53;14.80;;;;;;;;;;5035381;28;20409;-67
2024/01/07 03:30:09;;;;;;;33.97;15.90;;;;;;;;;;5035824;28;20963;-69
2024/01/07 03:32:35;;;;;;;31.10;18.67;;;;;;;;;;5034556;28;20450;-69
2024/01/07 03:35:02;;;;;;;26.57;18.23;;;;;;;;;;5034754;28;20438;-69
2024/01/07 03:37:28;;;;;;;24.70;14.97;;;;;;;;;;5034590;28;20413;-69
2024/01/07 03:39:54;;;;;;;24.00;15.37;;;;;;;;;;5033794;28;20436;-70
2024/01/07 03:42:20;;;;;;;24.77;16.10;;;;;;;;;;5038040;28;20468;-70
2024/01/07 03:44:46;;;;;;;25.60;15.87;;;;;;;;;;5036062;28;20425;-68
2024/01/07 03:47:12;;;;;;;26.10;16.83;;;;;;;;;;5035092;28;20436;-68
2024/01/07 03:49:38;;;;;;;29.60;18.13;;;;;;;;;;5034432;28;20472;-69
2024/01/07 03:52:08;;;;;;;22.93;15.50;;;;;;;;;;5034739;28;20414;-69
2024/01/07 03:54:34;;;;;;;26.50;17.03;;;;;;;;;;5035136;28;20418;-69
2024/01/07 03:57:00;;;;;;;25.33;16.40;;;;;;;;;;5032845;28;20470;-68
2024/01/07 03:59:26;;;;;;;24.43;15.90;;;;;;;;;;5034386;28;20475;-69
2024/01/07 04:01:57;;;;;;;21.43;13.77;;;;;;;;;;5033292;28;20457;-68
2024/01/07 04:04:23;;;;;;;23.97;15.23;;;;;;;;;;5032825;28;20414;-71
2024/01/07 04:06:49;;;;;;;23.23;15.47;;;;;;;;;;5032698;28;20516;-71
2024/01/07 04:09:15;;;;;;;20.53;15.13;;;;;;;;;;5038819;28;20975;-70
2024/01/07 04:11:41;;;;;;;35.53;18.10;;;;;;;;;;5039227;28;20446;-70
2024/01/07 04:14:08;;;;;;;26.27;15.37;;;;;;;;;;5038119;28;20479;-71
2024/01/07 04:16:34;;;;;;;20.80;14.57;;;;;;;;;;5039406;28;20487;-69
2024/01/07 04:19:02;;;;;;;25.37;16.50;;;;;;;;;;5038300;28;20540;-70
2024/01/07 04:21:27;;;;;;;24.37;15.23;;;;;;;;;;5039559;28;20489;-71
2024/01/07 04:23:53;;;;;;;21.60;13.80;;;;;;;;;;5039529;28;20951;-71
2024/01/07 04:26:19;;;;;;;27.13;15.30;;;;;;;;;;5039465;28;20521;-70
2024/01/07 04:28:45;;;;;;;22.30;15.20;;;;;;;;;;5039260;28;20463;-70
2024/01/07 04:31:11;;;;;;;24.37;18.07;;;;;;;;;;5037940;28;20507;-69
2024/01/07 04:33:37;;;;;;;22.33;13.87;;;;;;;;;;5039050;28;20449;-69
2024/01/07 04:36:06;;;;;;;24.03;14.83;;;;;;;;;;5037622;28;20491;-70
2024/01/07 04:38:32;;;;;;;27.60;16.53;;;;;;;;;;5037323;28;20422;-70
2024/01/07 04:40:58;;;;;;;21.13;16.07;;;;;;;;;;5039396;28;20416;-70
2024/01/07 04:43:24;;;;;;;23.37;16.10;;;;;;;;;;5039659;28;20417;-71
2024/01/07 04:45:50;;;;;;;21.00;15.13;;;;;;;;;;5039481;28;20884;-69
2024/01/07 04:48:16;;;;;;;20.20;14.67;;;;;;;;;;5037896;28;20473;-71
2024/01/07 04:50:42;;;;;;;24.60;14.00;;;;;;;;;;5039356;28;20450;-72
2024/01/07 04:53:11;;;;;;;24.20;15.70;;;;;;;;;;5039270;28;20414;-72
2024/01/07 04:55:37;;;;;;;23.77;15.60;;;;;;;;;;5039209;28;21010;-70
2024/01/07 04:58:04;;;;;;;21.30;15.27;;;;;;;;;;5040076;28;20467;-69
2024/01/07 05:00:30;;;;;;;25.87;15.03;;;;;;;;;;5040288;28;20410;-70
2024/01/07 05:02:56;;;;;;;34.33;16.83;;;;;;;;;;5038627;28;20511;-70
2024/01/07 05:05:22;;;;;;;21.40;15.23;;;;;;;;;;5037324;28;20449;-71
2024/01/07 05:07:48;;;;;;;24.47;14.67;;;;;;;;;;5038490;28;20492;-70
2024/01/07 05:10:14;;;;;;;30.17;17.90;;;;;;;;;;5038396;28;20492;-70
2024/01/07 05:12:40;;;;;;;23.13;15.17;;;;;;;;;;5036950;28;20436;-71
2024/01/07 05:15:06;;;;;;;21.37;14.83;;;;;;;;;;5036953;28;20435;-70
2024/01/07 05:17:32;;;;;;;19.83;14.47;;;;;;;;;;5038892;28;20796;-71
2024/01/07 05:19:58;;;;;;;24.30;15.97;;;;;;;;;;5036556;28;20424;-70
2024/01/07 05:22:24;;;;;;;23.63;16.47;;;;;;;;;;5037875;28;20501;-70
2024/01/07 05:24:50;;;;;;;21.97;14.23;;;;;;;;;;5037805;28;20525;-71
2024/01/07 05:27:16;;;;;;;20.33;13.80;;;;;;;;;;5036486;28;20433;-70
2024/01/07 05:29:49;;;;;;;18.73;14.30;;;;;;;;;;5036799;28;20780;-70
2024/01/07 05:32:15;;;;;;;24.10;14.40;;;;;;;;;;5035027;28;20927;-71
2024/01/07 05:34:41;;;;;;;22.20;14.10;;;;;;;;;;5036878;28;20414;-71
2024/01/07 05:37:07;;;;;;;20.43;14.50;;;;;;;;;;5034825;28;20457;-71
2024/01/07 05:39:33;;;;;;;21.92;14.80;;;;;;;;;;5034375;28;20428;-70
2024/01/07 05:41:59;;;;;;;15.53;11.40;;;;;;;;;;5035385;28;20221;-70
2024/01/07 05:44:25;;;;;;;20.73;14.37;;;;;;;;;;5034258;28;20428;-70
2024/01/07 05:46:51;;;;;;;23.37;13.30;;;;;;;;;;5036327;28;20457;-71
2024/01/07 05:49:17;;;;;;;21.97;14.33;;;;;;;;;;5035651;28;20779;-72
2024/01/07 05:51:43;;;;;;;20.40;10.73;;;;;;;;;;5034560;28;20490;-70
2024/01/07 05:54:09;;;;;;;14.77;10.77;;;;;;;;;;5034592;28;20505;-71
2024/01/07 05:56:40;;;;;;;19.70;12.50;;;;;;;;;;5035886;28;20433;-71
2024/01/07 05:59:06;;;;;;;21.33;13.03;;;;;;;;;;5036025;28;20418;-70
2024/01/07 06:01:32;;;;;;;15.87;11.37;;;;;;;;;;5035283;28;20457;-70
2024/01/07 06:03:57;;;;;;;15.00;12.13;;;;;;;;;;5035832;28;20406;-69
2024/01/07 06:06:23;;;;;;;17.53;11.60;;;;;;;;;;5035865;28;20868;-71
2024/01/07 06:08:49;;;;;;;15.20;10.70;;;;;;;;;;5035818;28;20784;-70
2024/01/07 06:11:20;;;;;;;13.77;10.20;;;;;;;;;;5036209;28;20782;-72
2024/01/07 06:13:46;;;;;;;17.23;11.43;;;;;;;;;;5036205;28;20420;-70
2024/01/07 06:16:13;;;;;;;16.88;10.73;;;;;;;;;;5035459;28;20218;-70
2024/01/07 06:18:39;;;;;;;18.90;11.90;;;;;;;;;;5034520;28;20577;-70
2024/01/07 06:21:05;;;;;;;13.40;10.13;;;;;;;;;;5035791;28;20436;-71
2024/01/07 06:23:33;;;;;;;15.27;11.43;;;;;;;;;;5035726;28;20406;-70
2024/01/07 06:25:59;;;;;;;18.52;13.02;;;;;;;;;;5034838;28;20202;-70
2024/01/07 06:28:25;;;;;;;14.98;11.50;;;;;;;;;;5036384;28;20251;-69
2024/01/07 06:30:51;;;;;;;16.70;11.40;;;;;;;;;;5035416;28;20173;-71
2024/01/07 06:33:17;;;;;;;17.50;13.10;;;;;;;;;;5034851;28;20427;-69
2024/01/07 06:35:43;;;;;;;16.73;12.13;;;;;;;;;;5033501;28;20449;-70
2024/01/07 06:38:09;;;;;;;16.27;10.82;;;;;;;;;;5034763;28;20418;-71
2024/01/07 06:40:35;;;;;;;15.80;11.43;;;;;;;;;;5034911;28;20193;-70
2024/01/07 06:43:01;;;;;;;15.17;11.17;;;;;;;;;;5034377;28;20471;-70
2024/01/07 06:45:27;;;;;;;20.07;12.10;;;;;;;;;;5034158;28;20435;-71
2024/01/07 06:47:54;;;;;;;17.93;11.60;;;;;;;;;;5034600;28;20440;-70
2024/01/07 06:50:20;;;;;;;16.23;11.30;;;;;;;;;;5034199;28;20798;-69
2024/01/07 06:52:46;;;;;;;15.10;11.43;;;;;;;;;;5033779;28;20415;-70
2024/01/07 06:55:12;;;;;;;14.13;11.88;;;;;;;;;;5033796;28;20563;-68
2024/01/07 06:57:38;;;;;;;14.63;11.13;;;;;;;;;;5032837;28;20174;-68
2024/01/07 07:00:04;;;;;;;16.60;12.20;;;;;;;;;;5034095;28;20896;-69
2024/01/07 07:02:30;;;;;;;15.90;11.75;;;;;;;;;;5033796;28;20840;-70
2024/01/07 07:04:56;;;;;;;18.10;12.33;;;;;;;;;;5032746;28;20178;-70
2024/01/07 07:07:22;;;;;;;20.00;13.17;;;;;;;;;;5032508;28;20423;-71
2024/01/07 07:09:48;;;;;;;16.93;10.93;;;;;;;;;;5032432;28;20532;-70
2024/01/07 07:12:14;;;;;;;20.43;14.70;;;;;;;;;;5033891;28;20424;-70
2024/01/07 07:14:40;;;;;;;19.10;13.87;;;;;;;;;;5032785;28;20466;-70
2024/01/07 07:17:06;;;;;;;23.87;12.17;;;;;;;;;;5033054;28;20460;-71
2024/01/07 07:19:32;;;;;;;21.93;15.20;;;;;;;;;;5032835;28;20426;-69
2024/01/07 07:21:58;;;;;;;18.07;12.27;;;;;;;;;;5032340;28;20999;-68
2024/01/07 07:24:24;;;;;;;17.93;14.43;;;;;;;;;;5032913;28;20780;-70
2024/01/07 07:26:50;;;;;;;18.20;13.07;;;;;;;;;;5032653;28;20433;-69
2024/01/07 07:29:16;;;;;;;17.40;12.50;;;;;;;;;;5031363;28;20422;-69
2024/01/07 07:31:42;;;;;;;20.33;14.33;;;;;;;;;;5025344;28;20961;-69
2024/01/07 07:34:10;;;;;;;20.23;13.33;;;;;;;;;;5041028;28;20767;-68
2024/01/07 07:36:35;;;;;;;20.90;14.15;;;;;;;;;;5051990;28;20437;-69
2024/01/07 07:39:01;;;;;;;19.80;13.53;;;;;;;;;;5031297;28;20571;-69
2024/01/07 07:41:28;;;;;;;23.73;16.50;;;;;;;;;;5032265;28;20492;-69
2024/01/07 07:43:54;;;;;;;19.15;14.23;;;;;;;;;;5031674;28;20502;-69
2024/01/07 07:46:20;;;;;;;17.27;13.43;;;;;;;;;;5032178;28;20257;-69
2024/01/07 07:48:46;;;;;;;20.73;13.10;;;;;;;;;;5032066;28;20409;-69
2024/01/07 07:51:12;;;;;;;16.90;11.63;;;;;;;;;;5011179;28;20465;-68
2024/01/07 07:53:39;;;;;;;19.57;14.10;;;;;;;;;;5012617;28;20890;-69
2024/01/07 07:56:06;;;;;;;16.80;13.15;;;;;;;;;;5012673;28;20426;-68
2024/01/07 07:58:32;;;;;;;18.90;13.65;;;;;;;;;;5012977;28;20193;-69
2024/01/07 08:00:58;;;;;;;19.23;14.10;;;;;;;;;;5011278;28;20174;-69
2024/01/07 08:03:24;;;;;;;21.65;13.43;;;;;;;;;;5012502;28;20438;-70
2024/01/07 08:05:50;;;;;;;21.23;14.60;;;;;;;;;;5011369;28;20204;-69
2024/01/07 08:08:19;;;;;;;19.05;14.25;;;;;;;;;;5012673;28;20489;-69
2024/01/07 08:10:45;;;;;;;20.87;14.97;;;;;;;;;;5012733;28;20689;-69
2024/01/07 08:13:11;;;;;;;19.20;12.33;;;;;;;;;;5012506;28;20422;-68
2024/01/07 08:15:37;;;;;;;18.07;13.57;;;;;;;;;;5013776;28;20458;-69
2024/01/07 08:18:03;;;;;;;22.27;15.13;;;;;;;;;;5026947;28;20441;-69
2024/01/07 08:20:29;;;;;;;19.43;13.90;;;;;;;;;;5031409;28;20422;-69
2024/01/07 08:22:55;;;;;;;18.80;14.90;;;;;;;;;;5032672;28;20472;-70
2024/01/07 08:25:22;;;;;;;19.20;14.10;;;;;;;;;;5030860;28;20540;-69
2024/01/07 08:27:48;;;;;;;20.67;15.00;;;;;;;;;;5031057;28;20418;-69
2024/01/07 08:30:15;;;;;;;16.53;13.87;;;;;;;;;;5032258;28;20799;-68
2024/01/07 08:32:41;;;;;;;22.50;13.90;;;;;;;;;;5031574;28;20487;-70
2024/01/07 08:35:07;;;;;;;21.60;14.03;;;;;;;;;;5031381;28;20408;-69
2024/01/07 08:37:33;;;;;;;20.23;15.03;;;;;;;;;;5031706;28;20849;-69
2024/01/07 08:39:59;;;;;;;20.10;14.13;;;;;;;;;;5031792;28;20440;-70
2024/01/07 08:42:25;;;;;;;19.27;14.50;;;;;;;;;;5031473;28;20464;-71
2024/01/07 08:44:51;;;;;;;19.23;13.17;;;;;;;;;;5032043;28;20955;-70
2024/01/07 08:47:17;;;;;;;18.73;15.27;;;;;;;;;;5031793;28;20493;-71
2024/01/07 08:49:43;;;;;;;20.87;15.50;;;;;;;;;;5030304;28;20425;-69
2024/01/07 08:52:09;;;;;;;17.73;12.70;;;;;;;;;;5030163;28;20413;-68
2024/01/07 08:54:35;;;;;;;22.30;15.07;;;;;;;;;;5033484;28;20420;-68
2024/01/07 08:57:02;;;;;;;18.77;13.07;;;;;;;;;;5035219;28;20825;-69
2024/01/07 08:59:28;;;;;;;19.93;14.30;;;;;;;;;;5035750;28;20455;-68
2024/01/07 09:01:54;;;;;;;21.67;12.90;;;;;;;;;;5031941;28;20562;-69
2024/01/07 09:04:20;;;;;;;14.87;11.37;;;;;;;;;;5041983;28;20425;-69
2024/01/07 09:06:46;;;;;;;13.43;9.57;;;;;;;;;;5033944;28;20854;-69
2024/01/07 09:09:12;;;;;;;10.68;7.90;;;;;;;;;;5035140;28;20432;-68
2024/01/07 09:11:38;;;;;;;13.00;8.53;;;;;;;;;;5033712;28;20185;-68
2024/01/07 09:14:05;;;;;;;17.10;8.90;;;;;;;;;;5023661;28;20849;-67
2024/01/07 09:16:31;;;;;;;12.17;8.83;;;;;;;;;;5014635;28;20545;-69
2024/01/07 09:18:57;;;;;;;11.27;8.73;;;;;;;;;;5014992;28;20498;-69
2024/01/07 09:21:23;;;;;;;13.40;8.47;;;;;;;;;;5014278;28;20564;-68
2024/01/07 09:23:49;;;;;;;11.88;8.85;;;;;;;;;;5015030;28;20776;-70
2024/01/07 09:26:15;;;;;;;16.20;9.60;;;;;;;;;;5021654;28;20312;-69
2024/01/07 09:28:42;;;;;;;12.68;9.77;;;;;;;;;;5033500;28;20182;-68
2024/01/07 09:31:08;;;;;;;12.07;8.77;;;;;;;;;;5032072;28;20220;-68
2024/01/07 09:33:34;;;;;;;10.33;7.50;;;;;;;;;;5014766;28;20419;-69
2024/01/07 09:36:00;;;;;;;12.10;8.30;;;;;;;;;;5014571;28;20438;-69
2024/01/07 09:38:26;;;;;;;19.20;7.33;;;;;;;;;;5020803;28;20461;-69
2024/01/07 09:40:55;;;;;;;10.47;7.50;;;;;;;;;;5029011;28;20809;-69
2024/01/07 09:43:21;;;;;;;11.48;7.60;;;;;;;;;;5030454;28;20975;-70
2024/01/07 09:45:48;;;;;;;12.13;7.80;;;;;;;;;;5032377;28;20206;-68
2024/01/07 09:48:14;;;;;;;13.60;8.57;;;;;;;;;;5028185;28;20545;-69
2024/01/07 09:50:40;;;;;;;10.47;8.00;;;;;;;;;;5030856;28;20282;-69
2024/01/07 09:53:07;;;;;;;13.27;8.43;;;;;;;;;;5029161;28;20444;-69
2024/01/07 09:55:35;;;;;;;11.07;7.10;;;;;;;;;;5028424;28;20678;-69
2024/01/07 09:58:01;;;;;;;10.80;7.13;;;;;;;;;;5030097;28;20448;-68
2024/01/07 10:00:28;;;;;;;14.18;9.60;;;;;;;;;;5030579;28;20428;-69
2024/01/07 10:02:54;;;;;;;11.70;7.43;;;;;;;;;;5029548;28;20205;-69
2024/01/07 10:05:21;;;;;;;9.88;7.35;;;;;;;;;;5028881;28;20445;-69
2024/01/07 10:07:47;;;;;;;11.27;6.90;;;;;;;;;;5027006;28;20190;-69
2024/01/07 10:10:17;;;;;;;10.10;7.50;;;;;;;;;;5010509;28;20437;-68
2024/01/07 10:12:45;;;;;;;10.03;7.07;;;;;;;;;;5010302;28;20477;-68
2024/01/07 10:15:11;;;;;;;13.20;7.10;;;;;;;;;;5008935;28;20464;-69
2024/01/07 10:17:38;;;;;;;11.47;6.97;;;;;;;;;;5009457;28;20797;-68
2024/01/07 10:20:05;;;;;;;9.75;6.82;;;;;;;;;;5010552;28;20487;-68
2024/01/07 10:22:32;;;;;;;8.38;5.40;;;;;;;;;;5014441;28;20244;-68
2024/01/07 10:24:58;;;;;;;8.60;6.22;;;;;;;;;;5014008;28;20178;-69
2024/01/07 10:27:24;;;;;;;11.47;5.80;;;;;;;;;;5031479;28;20272;-69
2024/01/07 10:29:50;;;;;;;8.73;6.27;;;;;;;;;;5033754;28;20410;-68
2024/01/07 10:32:19;;;;;;;7.45;6.63;;;;;;;;;;5033879;28;20444;-68
2024/01/07 10:34:49;;;;;;;8.75;6.10;;;;;;;;;;5032931;28;20182;-69
2024/01/07 10:37:15;;;;;;;10.43;7.43;;;;;;;;;;5033139;28;20187;-68
2024/01/07 10:39:41;;;;;;;10.77;5.90;;;;;;;;;;5029076;28;20717;-68
2024/01/07 10:42:08;;;;;;;9.30;6.47;;;;;;;;;;5028728;28;20468;-67
2024/01/07 10:44:35;;;;;;;11.05;6.88;;;;;;;;;;5028406;28;20194;-68
2024/01/07 10:47:05;;;;;;;12.00;7.05;;;;;;;;;;5030108;28;20192;-68
2024/01/07 10:49:31;;;;;;;7.25;5.20;;;;;;;;;;5033795;28;20660;-68
2024/01/07 10:52:07;;;;;;;9.45;5.85;;;3.20;50.00;;;;;;5032063;28;20265;-68
2024/01/07 10:54:35;;;;;;;7.45;5.93;;;3.10;41.60;;;;;;5033169;28;20261;-69
2024/01/07 10:57:09;;;;;;;9.40;6.35;;;3.00;41.50;;;;;;5033207;28;20210;-69
2024/01/07 10:59:36;;;;;;;9.45;5.07;;;3.00;42.40;;;;;;5029318;28;20178;-69
2024/01/07 11:02:03;;;;;;;9.98;6.88;;;3.10;40.20;;;;;;5024776;28;20463;-68
2024/01/07 11:04:51;;;;;;;7.82;5.18;;;3.00;39.20;;;;;;5024432;28;20221;-70
2024/01/07 11:07:34;;;;;;;9.60;6.20;;;3.00;40.60;;;;;;5024767;28;20173;-69
2024/01/07 11:10:00;;;;;;;6.45;4.72;;;3.00;39.90;;;;;;5025522;28;20189;-68
2024/01/07 11:12:26;;;;;;;10.53;6.60;;;2.90;39.60;;;;;;5040337;28;20240;-69
2024/01/07 11:14:52;;;;;;;8.57;5.73;;;2.90;41.50;;;;;;5021657;28;20566;-70
2024/01/07 11:17:39;;;;;;;9.00;6.15;;;2.90;38.60;;;;;;5028903;28;20216;-68
2024/01/07 11:20:26;;;;;;;10.43;6.70;;;2.90;35.60;;;;;;5031160;28;20181;-68
2024/01/07 11:22:52;;;;;;;9.30;6.60;;;3.00;35.80;;;;;;5036881;28;20459;-67
2024/01/07 11:25:32;;;;;;;10.90;7.57;;;3.00;36.50;;;;;;5028714;28;20456;-69
2024/01/07 11:27:58;;;;;;;10.47;6.10;;;3.00;36.00;;;;;;5013219;28;20173;-67
2024/01/07 11:30:25;;;;;;;13.60;8.23;;;2.90;33.50;;;;;;5013155;28;20415;-69
2024/01/07 11:32:57;;;;;;;12.20;7.70;;;2.80;34.80;;;;;;5025147;28;20186;-68
2024/01/07 11:36:02;;;;;;;15.93;6.85;;;2.90;34.90;;;;;;5032710;28;20209;-67
2024/01/07 11:38:28;;;;;;;9.68;6.97;;;2.90;32.80;;;;;;5033062;28;20201;-70
2024/01/07 11:40:55;;;;;;;12.03;7.40;;;2.80;35.10;;;;;;5031401;28;20683;-70
2024/01/07 11:43:21;;;;;;;9.55;6.35;;;2.90;36.40;;;;;;5013469;28;20214;-70
2024/01/07 11:45:54;;;;;;;10.27;6.93;;;3.00;36.40;;;;;;5013067;28;20213;-67
2024/01/07 11:48:19;;;;;;;10.55;8.48;;;2.80;33.60;;;;;;5012576;28;20521;-69
2024/01/07 11:50:45;;;;;;;14.00;6.67;;;2.80;36.30;;;;;;5012852;28;20189;-69
2024/01/07 11:53:14;;;;;;;11.07;6.93;;;2.80;34.40;;;;;;5011955;28;20255;-68
2024/01/07 11:55:39;;;;;;;9.73;7.07;;;2.70;35.40;;;;;;5015907;28;20252;-69
2024/01/07 11:58:07;;;;;;;9.83;6.87;;;2.70;35.30;;;;;;5037543;28;20665;-71
2024/01/07 12:00:34;;;;;;;10.43;6.82;;;2.70;36.20;;;;;;5037339;28;20927;-69
2024/01/07 12:03:01;;;;;;;7.80;6.80;;;2.60;35.60;;;;;;5011788;28;20304;-70
2024/01/07 12:05:27;;;;;;;10.85;6.18;;;2.50;34.80;;;;;;5011345;28;20198;-67
2024/01/07 12:07:53;;;;;;;9.65;7.55;;;2.60;36.10;;;;;;5011401;28;20595;-70
2024/01/07 12:10:20;;;;;;;12.90;8.90;;;2.60;35.00;;;;;;5012821;28;20249;-69
2024/01/07 12:12:46;;;;;;;8.70;6.68;;;2.60;34.60;;;;;;5012711;28;20529;-68
2024/01/07 12:15:12;;;;;;;11.80;7.00;;;2.50;33.70;;;;;;5012345;28;20256;-69
2024/01/07 12:17:41;;;;;;;8.82;6.38;;;2.50;33.20;;;;;;5023559;28;20440;-68
2024/01/07 12:20:09;;;;;;;6.75;5.78;;;2.50;32.30;;;;;;5032350;28;20234;-68
2024/01/07 12:22:38;;;;;;;10.00;6.13;;;2.50;32.80;;;;;;5032264;28;20209;-67
2024/01/07 12:25:05;;;;;;;11.20;7.43;;;2.50;32.30;;;;;;5032669;28;20177;-68
2024/01/07 12:27:31;;;;;;;8.95;6.38;;;2.50;33.20;;;;;;5032497;28;20766;-68
2024/01/07 12:29:58;;;;;;;13.90;7.77;;;2.60;33.90;;;;;;5035941;28;20206;-69
2024/01/07 12:32:36;;;;;;;13.80;8.05;;;2.70;34.10;;;;;;5037081;28;20499;-69
2024/01/07 12:35:01;;;;;;;10.90;6.78;;;2.70;32.20;;;;;;5036392;28;20187;-69
2024/01/07 12:37:27;;;;;;;9.23;6.20;;;2.80;30.40;;;;;;5036202;28;20195;-69
2024/01/07 12:39:53;;;;;;;8.87;7.37;;;2.70;29.70;;;;;;5036465;28;20570;-69
2024/01/07 12:42:21;;;;;;;12.82;7.65;;;2.70;30.30;;;;;;5025941;28;20468;-69
2024/01/07 12:44:48;;;;;;;10.32;7.38;;;2.60;30.00;;;;;;5016930;28;20581;-69
2024/01/07 12:47:14;;;;;;;9.23;6.63;;;2.60;31.20;;;;;;5024275;28;20200;-68
2024/01/07 12:49:40;;;;;;;9.07;6.53;;;2.60;30.40;;;;;;5031515;28;20177;-69
2024/01/07 12:52:05;;;;;;;10.50;7.00;;;2.60;30.30;;;;;;5016817;28;20417;-68
2024/01/07 12:54:31;;;;;;;10.60;7.47;;;2.50;30.90;;;;;;5016837;28;20190;-68
2024/01/07 12:56:57;;;;;;;11.03;7.10;;;2.50;31.80;;;;;;5020410;28;20213;-69
2024/01/07 12:59:22;;;;;;;8.67;6.17;;;2.50;31.30;;;;;;5037332;28;20191;-69
2024/01/07 13:01:50;;;;;;;10.97;7.60;;;2.50;30.90;;;;;;5031515;28;20218;-68
2024/01/07 13:04:16;;;;;;;8.23;6.30;;;2.30;30.00;;;;;;5020528;28;20643;-68
2024/01/07 13:06:42;;;;;;;10.43;5.63;;;2.30;30.10;;;;;;5019638;28;20194;-72
2024/01/07 13:09:09;;;;;;;8.10;5.97;;;2.20;32.00;;;;;;5016426;28;20178;-71
2024/01/07 13:11:35;;;;;;;9.23;5.78;;;2.10;32.50;;;;;;5017292;28;20170;-68
2024/01/07 13:14:01;;;;;;;9.07;7.20;;;2.10;33.30;;;;;;5016948;28;20174;-68
2024/01/07 13:16:27;;;;;;;8.55;6.28;;;2.00;35.60;;;;;;5017726;28;20831;-69
2024/01/07 13:18:53;;;;;;;10.23;7.20;;;2.10;36.00;;;;;;5030500;28;20190;-69
2024/01/07 13:21:20;;;;;;;7.82;7.00;;;2.20;35.00;;;;;;5049800;28;20419;-69
2024/01/07 13:23:46;;;;;;;10.13;6.25;;;2.00;35.40;;;;;;5040342;28;20196;-69
2024/01/07 13:26:11;;;;;;;10.10;6.53;;;2.00;36.30;;;;;;5041211;28;20203;-67
2024/01/07 13:28:37;;;;;;;9.40;7.03;;;1.90;37.80;;;;;;5035260;28;20432;-70
2024/01/07 13:31:06;;;;;;;13.20;7.77;;;1.90;38.20;;;;;;5036761;28;20194;-69
2024/01/07 13:33:32;;;;;;;13.10;8.05;;;1.90;39.20;;;;;;5030111;28;20313;-71
2024/01/07 13:35:58;;;;;;;8.17;6.83;;;;;;;;;;5030507;28;20288;-68
2024/01/07 13:38:24;;;;;;;9.90;6.35;;;;;;;;;;5030908;28;20500;-68
2024/01/07 13:40:51;;;;;;;11.30;8.27;;;;;;;;;;5028640;28;20195;-69
2024/01/07 13:43:17;;;;;;;10.77;7.80;;;;;;;;;;5030886;28;20212;-68
2024/01/07 13:45:43;;;;;;;14.02;8.27;;;;;;;;;;5033366;28;20199;-70
2024/01/07 13:48:09;;;;;;;12.93;6.80;;;;;;;;;;5037251;28;20246;-69
2024/01/07 13:50:35;;;;;;;10.90;8.75;;;;;;;;;;5032028;28;20466;-69
2024/01/07 13:53:02;;;;;;;9.87;8.07;;;;;;;;;;5043940;28;20223;-69
2024/01/07 13:55:28;;;;;;;10.73;7.60;;;;;;;;;;5035793;28;20534;-69
2024/01/07 13:57:54;;;;;;;10.15;6.78;;;;;;;;;;5041062;28;20208;-70